createdAt,value
2018-08-23T00:00:51.919Z,11.37
2018-08-23T00:03:25.720Z,10.53
2018-08-23T00:05:55.242Z,10.17
2018-08-23T00:08:24.471Z,10.83
2018-08-23T00:10:53.847Z,11.53
2018-08-23T00:13:22.829Z,11.93
2018-08-23T00:15:51.642Z,11.73
2018-08-23T00:18:20.185Z,12.20
2018-08-23T00:20:48.692Z,11.97
2018-08-23T00:23:17.281Z,12.27
2018-08-23T00:25:45.748Z,13.03
2018-08-23T00:28:14.238Z,11.30
2018-08-23T00:30:43.557Z,12.90
2018-08-23T00:33:11.997Z,12.43
2018-08-23T00:35:40.545Z,11.20
2018-08-23T00:38:09.206Z,12.00
2018-08-23T00:40:40.665Z,11.70
2018-08-23T00:43:10.466Z,11.57
2018-08-23T00:45:39.057Z,12.23
2018-08-23T00:48:07.566Z,12.87
2018-08-23T00:50:56.084Z,13.13
2018-08-23T00:53:24.714Z,13.33
2018-08-23T00:56:24.066Z,14.37
2018-08-23T00:58:57.801Z,13.90
2018-08-23T01:01:26.414Z,14.77
2018-08-23T01:03:54.855Z,15.17
2018-08-23T01:06:25.382Z,14.60
2018-08-23T01:08:53.831Z,13.77
2018-08-23T01:11:22.269Z,13.67
2018-08-23T01:13:50.709Z,12.93
2018-08-23T01:16:19.143Z,13.43
2018-08-23T01:18:47.641Z,12.43
2018-08-23T01:21:16.153Z,13.60
2018-08-23T01:23:44.589Z,13.93
2018-08-23T01:26:13.135Z,13.90
2018-08-23T01:28:41.589Z,14.27
2018-08-23T01:31:23.452Z,14.53
2018-08-23T01:33:54.877Z,14.90
2018-08-23T01:36:30.933Z,13.27
2018-08-23T01:39:00.105Z,13.57
2018-08-23T01:41:28.583Z,14.07
2018-08-23T01:43:57.084Z,15.50
2018-08-23T01:46:30.764Z,14.13
2018-08-23T01:48:59.269Z,13.97
2018-08-23T01:51:27.778Z,14.20
2018-08-23T01:53:56.467Z,13.40
2018-08-23T01:56:24.918Z,14.90
2018-08-23T01:58:53.380Z,13.43
2018-08-23T02:01:22.632Z,14.50
2018-08-23T02:03:51.200Z,14.30
2018-08-23T02:06:19.753Z,15.80
2018-08-23T02:08:48.282Z,15.00
2018-08-23T02:11:16.738Z,14.93
2018-08-23T02:13:48.522Z,16.67
2018-08-23T02:16:16.966Z,17.23
2018-08-23T02:18:45.465Z,18.10
2018-08-23T02:21:13.942Z,18.70
2018-08-23T02:23:49.352Z,19.40
2018-08-23T02:26:17.864Z,19.33
2018-08-23T02:28:47.991Z,17.90
2018-08-23T02:31:16.815Z,19.47
2018-08-23T02:33:45.288Z,18.80
2018-08-23T02:36:16.826Z,19.80
2018-08-23T02:38:52.022Z,18.73
2018-08-23T02:41:20.777Z,19.27
2018-08-23T02:43:49.327Z,18.13
2018-08-23T02:46:17.934Z,19.00
2018-08-23T02:48:46.380Z,18.87
2018-08-23T02:51:14.859Z,17.93
2018-08-23T02:53:45.438Z,18.63
2018-08-23T02:56:16.598Z,19.10
2018-08-23T02:58:58.144Z,19.50
2018-08-23T03:01:30.421Z,18.87
2018-08-23T03:04:12.154Z,18.07
2018-08-23T03:07:13.009Z,18.87
2018-08-23T03:09:43.894Z,18.13
2018-08-23T03:12:14.365Z,18.37
2018-08-23T03:14:42.798Z,19.10
2018-08-23T03:17:18.332Z,18.30
2018-08-23T03:20:03.726Z,18.23
2018-08-23T03:22:33.349Z,17.77
2018-08-23T03:25:03.488Z,18.57
2018-08-23T03:27:32.440Z,18.40
2018-08-23T03:30:01.783Z,18.40
2018-08-23T03:32:30.637Z,19.20
2018-08-23T03:34:59.636Z,18.93
2018-08-23T03:37:28.322Z,19.00
2018-08-23T03:39:57.106Z,18.23
2018-08-23T03:42:26.100Z,20.50
2018-08-23T03:44:55.510Z,19.83
2018-08-23T03:47:24.499Z,19.83
2018-08-23T03:49:53.030Z,17.93
2018-08-23T03:52:23.071Z,18.37
2018-08-23T03:54:55.126Z,17.83
2018-08-23T03:57:23.623Z,17.63
2018-08-23T03:59:53.263Z,17.47
2018-08-23T04:02:22.154Z,17.53
2018-08-23T04:04:55.650Z,17.13
2018-08-23T04:07:24.233Z,17.10
2018-08-23T04:09:52.684Z,17.17
2018-08-23T04:12:21.328Z,18.73
2018-08-23T04:14:49.859Z,19.37
2018-08-23T04:17:18.300Z,20.30
2018-08-23T04:19:48.924Z,20.90
2018-08-23T04:22:17.907Z,21.37
2018-08-23T04:24:57.093Z,22.13
2018-08-23T04:27:25.702Z,20.67
2018-08-23T04:29:54.132Z,21.80
2018-08-23T04:32:28.203Z,22.53
2018-08-23T04:34:57.813Z,21.27
2018-08-23T04:37:26.821Z,22.43
2018-08-23T04:40:00.686Z,22.77
2018-08-23T04:42:29.111Z,23.07
2018-08-23T04:44:57.638Z,24.23
2018-08-23T04:47:26.085Z,23.53
2018-08-23T04:49:54.545Z,22.80
2018-08-23T04:52:23.109Z,26.03
2018-08-23T04:54:51.529Z,22.23
2018-08-23T04:57:20.019Z,23.90
2018-08-23T04:59:48.457Z,24.73
2018-08-23T05:02:17.070Z,24.60
2018-08-23T05:04:45.619Z,23.60
2018-08-23T05:07:14.143Z,23.20
2018-08-23T05:09:42.590Z,23.63
2018-08-23T05:12:11.220Z,24.13
2018-08-23T05:14:39.789Z,24.93
2018-08-23T05:17:08.254Z,22.80
2018-08-23T05:19:36.727Z,25.23
2018-08-23T05:22:05.207Z,24.23
2018-08-23T05:24:33.729Z,23.97
2018-08-23T05:27:02.215Z,24.33
2018-08-23T05:29:30.643Z,24.17
2018-08-23T05:31:59.147Z,25.30
2018-08-23T05:34:28.611Z,25.13
2018-08-23T05:36:57.146Z,25.50
2018-08-23T05:40:02.781Z,25.33
2018-08-23T05:42:47.053Z,24.37
2018-08-23T05:45:15.608Z,25.20
2018-08-23T05:47:44.141Z,25.53
2018-08-23T05:50:12.710Z,25.70
2018-08-23T05:52:41.265Z,24.70
2018-08-23T05:55:09.778Z,26.57
2018-08-23T05:57:38.408Z,27.90
2018-08-23T06:00:07.158Z,27.00
2018-08-23T06:02:35.727Z,28.77
2018-08-23T06:05:04.406Z,26.40
2018-08-23T06:07:32.994Z,27.83
2018-08-23T06:10:01.449Z,29.40
2018-08-23T06:12:32.312Z,31.23
2018-08-23T06:15:00.897Z,32.03
2018-08-23T06:17:29.359Z,32.37
2018-08-23T06:19:57.937Z,34.93
2018-08-23T06:22:26.417Z,35.23
2018-08-23T06:24:54.862Z,34.87
2018-08-23T06:27:23.447Z,35.60
2018-08-23T06:29:52.119Z,34.97
2018-08-23T06:32:20.574Z,35.03
2018-08-23T06:34:51.723Z,36.00
2018-08-23T06:37:21.664Z,33.60
2018-08-23T06:39:50.105Z,35.37
2018-08-23T06:42:18.840Z,34.87
2018-08-23T06:44:53.172Z,34.47
2018-08-23T06:47:23.278Z,33.03
2018-08-23T06:49:52.844Z,34.27
2018-08-23T06:52:29.033Z,36.23
2018-08-23T06:54:57.593Z,35.73
2018-08-23T06:57:27.417Z,35.43
2018-08-23T06:59:55.913Z,33.50
2018-08-23T07:02:24.458Z,35.77
2018-08-23T07:04:52.944Z,37.70
2018-08-23T07:07:21.422Z,36.87
2018-08-23T07:09:49.862Z,37.87
2018-08-23T07:12:18.377Z,37.47
2018-08-23T07:14:48.223Z,37.17
2018-08-23T07:17:22.244Z,36.17
2018-08-23T07:19:51.088Z,35.30
2018-08-23T07:22:25.798Z,34.83
2018-08-23T07:24:55.773Z,34.90
2018-08-23T07:27:24.456Z,35.43
2018-08-23T07:29:54.807Z,36.13
2018-08-23T07:32:24.552Z,34.97
2018-08-23T07:35:04.954Z,35.73
2018-08-23T07:37:35.540Z,34.23
2018-08-23T07:40:09.473Z,34.23
2018-08-23T07:42:38.807Z,35.13
2018-08-23T07:45:08.150Z,33.33
2018-08-23T07:47:42.900Z,33.20
2018-08-23T07:50:11.423Z,32.30
2018-08-23T07:52:44.197Z,33.37
2018-08-23T07:55:12.847Z,32.33
2018-08-23T07:57:41.878Z,32.80
2018-08-23T08:00:27.609Z,31.67
2018-08-23T08:02:56.199Z,30.37
2018-08-23T08:05:29.985Z,31.43
2018-08-23T08:07:58.469Z,30.37
2018-08-23T08:10:31.946Z,28.90
2018-08-23T08:13:00.611Z,28.20
2018-08-23T08:15:29.272Z,27.23
2018-08-23T08:18:06.958Z,28.23
2018-08-23T08:20:35.443Z,27.40
2018-08-23T08:23:03.935Z,29.30
2018-08-23T08:25:33.063Z,30.00
2018-08-23T08:28:01.623Z,28.63
2018-08-23T08:30:41.300Z,28.77
2018-08-23T08:33:11.551Z,28.97
2018-08-23T08:35:42.684Z,29.30
2018-08-23T08:38:12.287Z,27.43
2018-08-23T08:40:41.117Z,27.47
2018-08-23T08:43:09.617Z,26.60
2018-08-23T08:45:38.221Z,25.40
2018-08-23T08:48:23.685Z,24.87
2018-08-23T08:51:08.749Z,23.80
2018-08-23T08:53:37.229Z,25.23
2018-08-23T08:56:06.156Z,25.93
2018-08-23T08:58:34.941Z,25.87
2018-08-23T09:01:03.497Z,26.53
2018-08-23T09:03:33.960Z,26.17
2018-08-23T09:06:04.412Z,25.60
2018-08-23T09:08:33.322Z,23.80
2018-08-23T09:11:01.878Z,24.17
2018-08-23T09:13:35.694Z,23.90
2018-08-23T09:16:06.908Z,22.93
2018-08-23T09:18:36.575Z,21.50
2018-08-23T09:21:05.211Z,21.17
2018-08-23T09:23:34.437Z,20.03
2018-08-23T09:26:03.315Z,19.57
2018-08-23T09:28:31.893Z,20.97
2018-08-23T09:31:00.351Z,19.33
2018-08-23T09:33:29.471Z,21.37
2018-08-23T09:35:58.081Z,21.37
2018-08-23T09:38:26.581Z,21.20
2018-08-23T09:40:55.172Z,20.40
2018-08-23T09:43:23.697Z,21.77
2018-08-23T09:45:53.467Z,21.60
2018-08-23T09:48:22.264Z,21.27
2018-08-23T09:50:50.964Z,21.03
2018-08-23T09:53:24.855Z,20.60
2018-08-23T09:55:54.905Z,19.30
2018-08-23T09:58:28.885Z,19.70
2018-08-23T10:01:02.721Z,19.20
2018-08-23T10:03:36.577Z,19.83
2018-08-23T10:06:10.367Z,19.10
2018-08-23T10:08:44.620Z,17.27
2018-08-23T10:11:20.186Z,18.57
2018-08-23T10:13:53.937Z,18.93
2018-08-23T10:16:27.780Z,17.30
2018-08-23T10:19:02.440Z,16.43
2018-08-23T10:21:36.193Z,17.73
2018-08-23T10:24:15.421Z,17.47
2018-08-23T10:26:43.973Z,17.77
2018-08-23T10:29:12.382Z,16.27
2018-08-23T10:31:40.937Z,16.73
2018-08-23T10:34:09.414Z,15.70
2018-08-23T10:36:37.874Z,15.70
2018-08-23T10:39:09.178Z,16.03
2018-08-23T10:41:37.737Z,13.90
2018-08-23T10:44:06.634Z,13.67
2018-08-23T10:46:40.530Z,13.07
2018-08-23T10:49:08.995Z,13.40
2018-08-23T10:51:37.460Z,12.97
2018-08-23T10:54:06.030Z,12.63
2018-08-23T10:56:34.477Z,12.27
2018-08-23T10:59:03.096Z,13.00
2018-08-23T11:01:31.556Z,12.87
2018-08-23T11:04:04.211Z,12.20
2018-08-23T11:06:32.783Z,12.00
2018-08-23T11:09:06.720Z,12.03
2018-08-23T11:11:36.753Z,12.63
2018-08-23T11:14:10.466Z,12.03
2018-08-23T11:16:44.398Z,11.90
2018-08-23T11:19:18.197Z,11.87
2018-08-23T11:21:46.678Z,12.20
2018-08-23T11:24:15.206Z,11.63
2018-08-23T11:26:43.761Z,10.63
2018-08-23T11:29:12.228Z,10.23
2018-08-23T11:31:40.726Z,9.60
2018-08-23T11:34:09.302Z,9.40
2018-08-23T11:36:37.754Z,8.20
2018-08-23T11:39:08.370Z,8.97
2018-08-23T11:41:36.850Z,9.07
2018-08-23T11:44:05.446Z,8.40
2018-08-23T11:46:33.913Z,8.47
2018-08-23T11:49:02.474Z,8.93
2018-08-23T11:51:30.983Z,9.07
2018-08-23T11:53:59.525Z,9.77
2018-08-23T11:56:27.978Z,9.97
2018-08-23T11:58:56.491Z,8.87
2018-08-23T12:01:24.936Z,8.97
2018-08-23T12:03:53.396Z,9.70
2018-08-23T12:06:21.946Z,7.93
2018-08-23T12:08:50.379Z,9.20
2018-08-23T12:11:18.870Z,8.57
2018-08-23T12:13:49.194Z,8.07
2018-08-23T12:16:17.785Z,8.03
2018-08-23T12:18:46.404Z,7.57
2018-08-23T12:21:15.001Z,7.50
2018-08-23T12:23:43.490Z,8.30
2018-08-23T12:26:12.081Z,7.57
2018-08-23T12:28:45.950Z,6.40
2018-08-23T12:31:14.461Z,6.07
2018-08-23T12:33:43.115Z,6.40
2018-08-23T12:36:12.929Z,6.03
2018-08-23T12:38:46.703Z,5.67
2018-08-23T12:41:20.666Z,5.40
2018-08-23T12:43:51.680Z,5.27
2018-08-23T12:46:20.211Z,5.10
2018-08-23T12:48:48.793Z,4.33
2018-08-23T12:51:17.598Z,4.27
2018-08-23T12:53:46.077Z,4.10
2018-08-23T12:56:14.550Z,3.53
2018-08-23T12:58:43.057Z,3.60
2018-08-23T13:01:11.556Z,3.70
2018-08-23T13:03:40.193Z,4.30
2018-08-23T13:06:08.622Z,3.40
2018-08-23T13:08:37.173Z,3.00
2018-08-23T13:11:05.833Z,3.50
2018-08-23T13:13:34.267Z,3.30
2018-08-23T13:16:02.917Z,3.03
2018-08-23T13:18:31.393Z,3.43
2018-08-23T13:20:59.848Z,4.20
2018-08-23T13:23:28.311Z,3.40
2018-08-23T13:25:58.171Z,3.53
2018-08-23T13:28:27.552Z,3.20
2018-08-23T13:30:56.021Z,3.20
2018-08-23T13:33:25.508Z,3.20
2018-08-23T13:35:53.979Z,3.27
2018-08-23T13:38:22.445Z,2.90
2018-08-23T13:40:50.935Z,3.60
2018-08-23T13:43:19.449Z,3.30
2018-08-23T13:45:47.942Z,3.63
2018-08-23T13:48:16.479Z,3.30
2018-08-23T13:50:45.032Z,3.10
2018-08-23T13:53:13.513Z,3.00
2018-08-23T13:55:42.125Z,3.33
2018-08-23T13:58:10.652Z,2.67
2018-08-23T14:00:40.005Z,3.03
2018-08-23T14:03:09.367Z,2.90
2018-08-23T14:05:39.422Z,3.47
2018-08-23T14:08:08.756Z,3.17
2018-08-23T14:10:37.359Z,3.70
2018-08-23T14:13:06.113Z,3.37
2018-08-23T14:15:39.839Z,3.50
2018-08-23T14:18:08.625Z,3.10
2018-08-23T14:20:37.085Z,2.97
2018-08-23T14:23:05.541Z,2.90
2018-08-23T14:25:34.127Z,3.60
2018-08-23T14:28:02.547Z,3.27
2018-08-23T14:30:31.040Z,3.67
2018-08-23T14:32:59.538Z,3.67
2018-08-23T14:35:27.996Z,3.20
2018-08-23T14:37:56.541Z,2.90
2018-08-23T14:40:25.137Z,2.90
2018-08-23T14:42:53.672Z,3.20
2018-08-23T14:45:27.624Z,3.63
2018-08-23T14:48:01.436Z,3.00
2018-08-23T14:50:29.902Z,3.10
2018-08-23T14:52:58.721Z,3.10
2018-08-23T14:55:32.440Z,3.20
2018-08-23T14:58:00.886Z,2.90
2018-08-23T15:00:29.593Z,2.83
2018-08-23T15:02:58.117Z,2.87
2018-08-23T15:05:26.582Z,2.60
2018-08-23T15:07:55.109Z,2.40
2018-08-23T15:10:23.693Z,2.20
2018-08-23T15:12:52.391Z,2.30
2018-08-23T15:15:25.151Z,2.30
2018-08-23T15:17:53.633Z,2.47
2018-08-23T15:20:22.233Z,2.23
2018-08-23T15:22:50.744Z,2.80
2018-08-23T15:25:19.304Z,2.30
2018-08-23T15:27:47.824Z,2.40
2018-08-23T15:30:16.292Z,2.33
2018-08-23T15:32:44.985Z,2.20
2018-08-23T15:35:13.443Z,2.10
2018-08-23T15:37:41.903Z,2.00
2018-08-23T15:40:10.402Z,1.90
2018-08-23T15:42:38.980Z,1.90
2018-08-23T15:45:09.157Z,2.20
2018-08-23T15:47:37.616Z,2.20
2018-08-23T15:50:06.262Z,2.30
2018-08-23T15:52:34.715Z,2.17
2018-08-23T15:55:03.355Z,2.33
2018-08-23T15:57:31.865Z,1.90
2018-08-23T16:00:00.331Z,2.20
2018-08-23T16:02:28.919Z,1.80
2018-08-23T16:04:57.468Z,1.80
2018-08-23T16:07:25.925Z,2.00
2018-08-23T16:09:54.469Z,1.73
2018-08-23T16:12:23.044Z,1.67
2018-08-23T16:14:51.633Z,1.70
2018-08-23T16:17:25.587Z,1.50
2018-08-23T16:19:59.480Z,1.47
2018-08-23T16:22:28.266Z,1.60
2018-08-23T16:24:56.849Z,1.60
2018-08-23T16:27:25.415Z,1.73
2018-08-23T16:29:54.303Z,1.80
2018-08-23T16:32:28.105Z,1.83
2018-08-23T16:34:56.599Z,1.60
2018-08-23T16:37:25.075Z,1.60
2018-08-23T16:39:53.559Z,1.40
2018-08-23T16:42:22.122Z,1.40
2018-08-23T16:44:50.675Z,1.70
2018-08-23T16:47:19.299Z,1.63
2018-08-23T16:49:48.000Z,1.43
2018-08-23T16:52:16.578Z,1.50
2018-08-23T16:54:45.270Z,1.70
2018-08-23T16:57:14.162Z,1.60
2018-08-23T16:59:42.831Z,1.50
2018-08-23T17:02:11.306Z,1.40
2018-08-23T17:04:43.384Z,1.50
2018-08-23T17:07:13.010Z,1.40
2018-08-23T17:09:41.506Z,1.87
2018-08-23T17:12:10.270Z,1.67
2018-08-23T17:14:38.758Z,1.70
2018-08-23T17:17:12.544Z,1.63
2018-08-23T17:19:41.153Z,1.53
2018-08-23T17:22:09.597Z,1.50
2018-08-23T17:24:38.164Z,1.40
2018-08-23T17:27:06.513Z,1.40
2018-08-23T17:29:34.942Z,1.50
2018-08-23T17:32:03.543Z,1.37
2018-08-23T17:34:32.109Z,1.40
2018-08-23T17:37:00.562Z,1.57
2018-08-23T17:39:29.026Z,1.40
2018-08-23T17:41:57.589Z,1.40
2018-08-23T17:44:26.049Z,1.53
2018-08-23T17:46:54.500Z,1.10
2018-08-23T17:49:23.077Z,1.40
2018-08-23T17:51:51.587Z,1.40
2018-08-23T17:54:20.078Z,1.60
2018-08-23T17:56:48.753Z,1.33
2018-08-23T17:59:17.256Z,1.40
2018-08-23T18:01:45.729Z,1.30
2018-08-23T18:04:14.266Z,1.30
2018-08-23T18:06:42.757Z,1.40
2018-08-23T18:09:12.829Z,1.43
2018-08-23T18:11:41.636Z,1.30
2018-08-23T18:14:10.393Z,1.40
2018-08-23T18:16:44.341Z,1.50
2018-08-23T18:19:13.305Z,1.60
2018-08-23T18:21:42.597Z,1.50
2018-08-23T18:24:11.506Z,1.33
2018-08-23T18:26:39.979Z,1.40
2018-08-23T18:29:08.440Z,1.10
2018-08-23T18:31:36.957Z,1.20
2018-08-23T18:34:05.652Z,1.23
2018-08-23T18:36:34.921Z,1.43
2018-08-23T18:39:04.789Z,1.70
2018-08-23T18:41:33.476Z,1.40
2018-08-23T18:44:02.023Z,1.70
2018-08-23T18:46:30.489Z,1.30
2018-08-23T18:49:00.001Z,1.33
2018-08-23T18:51:30.946Z,1.40
2018-08-23T18:54:00.171Z,1.40
2018-08-23T18:56:29.568Z,1.30
2018-08-23T18:58:58.554Z,1.40
2018-08-23T19:01:27.013Z,1.40
2018-08-23T19:03:55.527Z,1.40
2018-08-23T19:06:29.327Z,1.63
2018-08-23T19:08:57.776Z,1.30
2018-08-23T19:11:26.389Z,1.37
2018-08-23T19:13:54.874Z,1.33
2018-08-23T19:16:28.802Z,1.40
2018-08-23T19:18:57.334Z,1.33
2018-08-23T19:21:25.927Z,1.40
2018-08-23T19:23:54.553Z,1.20
2018-08-23T19:26:23.028Z,1.57
2018-08-23T19:28:51.526Z,1.40
2018-08-23T19:31:20.091Z,1.40
2018-08-23T19:33:48.635Z,1.40
2018-08-23T19:36:17.092Z,1.50
2018-08-23T19:38:45.602Z,1.20
2018-08-23T19:41:14.065Z,1.13
2018-08-23T19:43:42.577Z,1.40
2018-08-23T19:46:16.333Z,1.47
2018-08-23T19:48:46.249Z,1.40
2018-08-23T19:51:14.813Z,1.20
2018-08-23T19:53:43.407Z,1.20
2018-08-23T19:56:11.959Z,1.30
2018-08-23T19:58:40.537Z,1.37
2018-08-23T20:01:08.998Z,1.30
2018-08-23T20:03:37.494Z,1.40
2018-08-23T20:06:06.213Z,1.40
2018-08-23T20:08:34.710Z,1.40
2018-08-23T20:11:03.237Z,1.50
2018-08-23T20:13:31.720Z,1.30
2018-08-23T20:16:00.230Z,1.30
2018-08-23T20:18:28.782Z,1.40
2018-08-23T20:20:57.310Z,1.50
2018-08-23T20:23:26.497Z,1.30
2018-08-23T20:25:55.042Z,1.27
2018-08-23T20:28:23.597Z,1.50
2018-08-23T20:30:52.168Z,1.43
2018-08-23T20:33:20.610Z,1.70
2018-08-23T20:35:58.210Z,1.33
2018-08-23T20:38:26.656Z,1.60
2018-08-23T20:40:55.096Z,1.67
2018-08-23T20:43:23.683Z,1.50
2018-08-23T20:45:52.212Z,1.60
2018-08-23T20:48:20.652Z,1.63
2018-08-23T20:50:49.133Z,1.30
2018-08-23T20:53:17.670Z,1.37
2018-08-23T20:55:46.131Z,1.50
2018-08-23T20:58:14.784Z,1.63
2018-08-23T21:00:43.164Z,1.60
2018-08-23T21:03:11.838Z,1.57
2018-08-23T21:05:40.292Z,1.50
2018-08-23T21:08:08.866Z,2.00
2018-08-23T21:10:37.303Z,1.80
2018-08-23T21:13:05.822Z,1.83
2018-08-23T21:15:37.512Z,1.80
2018-08-23T21:18:08.616Z,1.80
2018-08-23T21:20:37.158Z,1.80
2018-08-23T21:23:05.850Z,1.77
2018-08-23T21:25:34.431Z,1.80
2018-08-23T21:28:02.966Z,2.03
2018-08-23T21:30:31.647Z,1.70
2018-08-23T21:33:00.200Z,1.60
2018-08-23T21:35:28.624Z,1.80
2018-08-23T21:37:57.129Z,2.00
2018-08-23T21:40:25.608Z,1.90
2018-08-23T21:42:54.061Z,2.20
2018-08-23T21:45:22.523Z,1.90
2018-08-23T21:47:50.981Z,1.90
2018-08-23T21:50:19.477Z,2.10
2018-08-23T21:52:48.001Z,1.80
2018-08-23T21:55:16.533Z,1.87
2018-08-23T21:57:44.991Z,1.60
2018-08-23T22:00:13.493Z,1.90
2018-08-23T22:02:41.986Z,1.57
2018-08-23T22:05:10.477Z,1.90
2018-08-23T22:07:39.101Z,1.80
2018-08-23T22:10:07.649Z,1.90
2018-08-23T22:12:36.043Z,2.10
2018-08-23T22:15:04.793Z,1.97
2018-08-23T22:17:33.337Z,2.10
2018-08-23T22:20:01.775Z,2.00
2018-08-23T22:22:30.213Z,2.30
2018-08-23T22:24:58.683Z,2.30
2018-08-23T22:27:27.151Z,2.60
2018-08-23T22:29:55.611Z,2.47
2018-08-23T22:32:24.063Z,2.80
2018-08-23T22:34:52.592Z,2.50
2018-08-23T22:37:21.020Z,2.47
2018-08-23T22:39:49.469Z,2.80
2018-08-23T22:42:17.916Z,2.70
2018-08-23T22:44:46.369Z,3.00
2018-08-23T22:47:14.843Z,3.57
2018-08-23T22:49:43.454Z,3.60
2018-08-23T22:52:12.013Z,3.20
2018-08-23T22:54:40.449Z,2.80
2018-08-23T22:57:08.906Z,3.27
2018-08-23T22:59:37.422Z,3.57
2018-08-23T23:02:06.031Z,3.50
2018-08-23T23:04:34.460Z,3.53
2018-08-23T23:07:07.286Z,3.73
2018-08-23T23:09:36.200Z,4.20
2018-08-23T23:12:04.658Z,3.40
2018-08-23T23:14:33.116Z,3.70
2018-08-23T23:17:05.799Z,3.43
2018-08-23T23:19:34.271Z,3.50
2018-08-23T23:22:02.929Z,3.30
2018-08-23T23:24:36.748Z,3.30
2018-08-23T23:27:05.623Z,3.20
2018-08-23T23:29:34.060Z,3.13
2018-08-23T23:32:02.776Z,3.53
2018-08-23T23:34:31.330Z,2.90
2018-08-23T23:36:59.812Z,3.30
2018-08-23T23:39:28.253Z,3.00
2018-08-23T23:41:56.704Z,2.73
2018-08-23T23:44:25.187Z,2.60
2018-08-23T23:46:53.602Z,2.77
2018-08-23T23:49:22.030Z,3.00
2018-08-23T23:51:50.497Z,2.77
2018-08-23T23:54:19.026Z,2.57
2018-08-23T23:56:47.561Z,3.00
2018-08-23T23:59:16.077Z,3.37
